Details for TUI Airlines UK (Thomson) at EGTE




Go Back


Latest METAR
Local Time

EGTE 241320Z 06011KT CAVOK 05/M02 Q1019

24/02/2018, 13:47:59

Description
Results
TUI Airlines UK (Thomson) Logo
Number of Pilots based at EGTE
0 Pilots Based here
Number of TUI Airlines UK (Thomson) Flights Departed from EGTE
1 Flights Departed
Number of TUI Airlines UK (Thomson) Flights Arrived at EGTE
2 Flights Arrived
Number of TUI Airlines UK (Thomson) Schedules Departing from EGTE
6 Schedules
Number of TUI Airlines UK (Thomson) Schedules Arriving at EGTE
8 Schedules
Number of TUI Airlines UK (Thomson) Schedules Departing from EGTE availible today
1 Schedules Today
Number of TUI Airlines UK (Thomson) Schedules Arriving at EGTE availible today
1 Schedules Today
Average Landing Rate at EGTE
-216 fpm
TUI Airlines UK (Thomson) Average Landing Rate at EGTE
-451 fpm
Total Fuel Purchased at EGTE by TUI Airlines UK (Thomson)
11,451.85 kgs / 25,246.75 lbs

Pilots Based at EGTE


Pilot ID
Pilot Name
Pilot Rank
No. of Flights
No. of Flying Hours
There are no pilots assigned to this hub!   Will you be the first?
Content